Time;durP1;ratioP1;P1;durP2;ratioP2;P2;SDS_P1;SDS_P2;PMS_P1;PMS_P2;Temp;Humidity;BMP_temperature;BMP_pressure;BME280_temperature;BME280_humidity;BME280_pressure;Samples;Min_cycle;Max_cycle;Signal;HPM_P1;HPM_P2
2021/11/23 00:00:19;;;;;;;8.15;1.63;;;3.50;99.90;;;1.85;100.00;101613.91;4940658;28;20030;-77
2021/11/23 00:02:47;;;;;;;6.85;1.73;;;3.60;99.90;;;1.88;100.00;101618.25;4981609;28;20073;-77
2021/11/23 00:05:14;;;;;;;5.15;1.33;;;3.60;99.90;;;1.89;100.00;101627.78;4977990;28;20105;-77
2021/11/23 00:07:40;;;;;;;4.15;1.20;;;3.60;99.90;;;1.90;100.00;101639.91;4972726;28;20053;-77
2021/11/23 00:10:08;;;;;;;9.95;1.90;;;3.60;99.90;;;1.94;100.00;101646.84;4963795;28;20027;-78
2021/11/23 00:12:39;;;;;;;8.65;1.50;;;3.70;99.90;;;1.94;100.00;101665.88;4950851;28;20033;-77
2021/11/23 00:15:06;;;;;;;6.43;1.52;;;3.70;99.90;;;1.95;100.00;101672.84;4964920;28;20109;-77
2021/11/23 00:17:32;;;;;;;10.95;2.70;;;3.70;99.90;;;1.98;100.00;101684.97;4944648;28;20033;-77
2021/11/23 00:19:58;;;;;;;13.80;2.10;;;3.70;99.90;;;2.04;100.00;101692.78;4989793;28;24130;-78
2021/11/23 00:22:24;;;;;;;6.60;2.10;;;3.70;99.90;;;2.02;100.00;101695.38;4989285;28;20556;-78
2021/11/23 00:24:50;;;;;;;7.70;1.90;;;3.80;99.90;;;2.03;100.00;101691.94;4956347;28;20042;-79
2021/11/23 00:27:18;;;;;;;10.00;2.40;;;3.80;99.90;;;2.10;100.00;101682.41;4947251;28;20045;-78
2021/11/23 00:29:44;;;;;;;3.72;1.77;;;3.80;99.90;;;2.11;100.00;101681.53;4936510;28;20025;-78
2021/11/23 00:32:10;;;;;;;9.07;2.55;;;3.90;99.90;;;2.15;100.00;101675.50;5004997;28;20038;-78
2021/11/23 00:34:36;;;;;;;12.93;1.98;;;3.90;99.90;;;2.22;100.00;101686.78;4976790;28;20064;-79
2021/11/23 00:37:02;;;;;;;8.25;2.28;;;4.00;99.90;;;2.28;100.00;101691.13;4959600;28;20176;-79
2021/11/23 00:39:28;;;;;;;9.32;2.38;;;4.00;99.90;;;2.32;100.00;101705.88;4933852;28;20044;-78
2021/11/23 00:41:55;;;;;;;9.65;2.13;;;4.00;99.90;;;2.35;100.00;101708.47;4932473;28;20017;-78
2021/11/23 00:44:23;;;;;;;8.07;1.90;;;4.10;99.90;;;2.36;100.00;101712.81;4988704;28;20040;-78
2021/11/23 00:46:49;;;;;;;12.02;2.70;;;4.10;99.90;;;2.38;100.00;101717.16;4984174;28;20051;-78
2021/11/23 00:49:17;;;;;;;9.38;2.47;;;4.10;99.90;;;2.41;100.00;101718.91;4951519;28;20619;-78
2021/11/23 00:51:44;;;;;;;13.70;2.75;;;4.10;99.90;;;2.44;100.00;101713.69;4912164;28;20030;-78
2021/11/23 00:54:13;;;;;;;8.07;2.40;;;4.20;99.90;;;2.45;100.00;101713.72;4933373;28;20117;-78
2021/11/23 00:56:39;;;;;;;6.22;2.22;;;4.20;99.90;;;2.54;100.00;101705.06;4956172;28;20036;-78
2021/11/23 00:59:06;;;;;;;10.20;2.63;;;4.20;99.90;;;2.61;100.00;101675.63;5018226;28;20092;-79
2021/11/23 01:01:33;;;;;;;11.63;3.38;;;4.40;99.90;;;2.72;100.00;101698.16;4932565;28;20032;-78
2021/11/23 01:03:58;;;;;;;9.10;3.15;;;4.40;99.90;;;2.83;100.00;101696.44;4966897;28;20018;-78
2021/11/23 01:06:24;;;;;;;7.82;3.38;;;4.50;99.90;;;2.93;100.00;101705.13;4952747;28;20120;-78
2021/11/23 01:08:53;;;;;;;19.35;4.07;;;4.60;99.90;;;2.96;100.00;101700.81;4960671;28;20037;-78
2021/11/23 01:11:20;;;;;;;11.95;3.85;;;4.70;99.90;;;3.02;100.00;101703.41;4933452;28;22912;-78
2021/11/23 01:13:49;;;;;;;20.92;5.00;;;4.70;99.90;;;3.06;100.00;101694.72;4998499;28;20029;-79
2021/11/23 01:16:16;;;;;;;16.23;4.25;;;4.70;99.90;;;3.11;100.00;101693.84;4957338;28;20030;-77
2021/11/23 01:18:48;;;;;;;21.08;4.38;;;4.80;99.90;;;3.12;100.00;101699.06;4999745;28;20564;-77
2021/11/23 01:21:15;;;;;;;10.75;4.40;;;4.80;99.90;;;3.13;100.00;101699.91;4965837;28;20041;-79
2021/11/23 01:23:42;;;;;;;8.25;4.40;;;4.80;99.90;;;3.11;100.00;101686.03;4941270;28;20041;-78
2021/11/23 01:26:09;;;;;;;9.68;4.22;;;4.80;99.90;;;3.14;100.00;101683.44;4982817;28;20045;-78
2021/11/23 01:28:39;;;;;;;12.07;5.50;;;4.80;99.90;;;3.10;100.00;101676.50;5017716;28;20505;-78
2021/11/23 01:31:05;;;;;;;15.70;4.47;;;4.70;99.90;;;3.08;100.00;101679.09;4941258;28;20022;-78
2021/11/23 01:33:31;;;;;;;17.35;4.93;;;4.70;99.90;;;3.09;100.00;101673.03;4941842;28;20056;-78
2021/11/23 01:35:58;;;;;;;11.00;4.78;;;4.80;99.90;;;3.09;100.00;101665.25;4986003;28;20120;-79
2021/11/23 01:38:24;;;;;;;10.77;5.00;;;4.70;99.90;;;3.08;100.00;101661.75;4937158;28;20127;-78
2021/11/23 01:40:57;;;;;;;22.40;5.45;;;4.80;99.90;;;3.11;100.00;101653.09;4957951;28;20476;-78
2021/11/23 01:43:24;;;;;;;16.52;5.78;;;4.70;99.90;;;3.10;100.00;101660.91;4992786;28;20052;-78
2021/11/23 01:45:50;;;;;;;15.35;5.70;;;4.80;99.90;;;3.10;100.00;101659.16;4962404;28;20022;-78
2021/11/23 01:48:16;;;;;;;19.75;5.72;;;4.80;99.90;;;3.13;100.00;101663.47;4950375;28;20038;-78
2021/11/23 01:50:49;;;;;;;24.98;6.50;;;4.80;99.90;;;3.14;100.00;101658.28;4976536;28;20064;-78
2021/11/23 01:53:16;;;;;;;20.55;6.28;;;4.80;99.90;;;3.15;100.00;101660.00;4949742;28;20033;-77
2021/11/23 01:55:43;;;;;;;19.27;6.72;;;4.80;99.90;;;3.18;100.00;101665.22;4920327;28;20076;-78
2021/11/23 01:58:15;;;;;;;19.42;7.47;;;4.90;99.90;;;3.26;100.00;101660.00;4931782;28;20033;-78
2021/11/23 02:00:42;;;;;;;16.50;6.10;;;4.90;99.90;;;3.24;100.00;101656.53;4935072;28;20033;-78
2021/11/23 02:03:09;;;;;;;14.65;7.05;;;4.90;99.90;;;3.24;100.00;101699.06;4920190;28;20678;-78
2021/11/23 02:05:36;;;;;;;12.75;6.80;;;4.90;99.90;;;3.27;100.00;101677.34;4936357;28;20045;-78
2021/11/23 02:08:07;;;;;;;14.80;6.22;;;4.90;99.90;;;3.28;100.00;101673.88;4966634;28;20029;-78
2021/11/23 02:10:34;;;;;;;19.83;7.05;;;4.90;99.90;;;3.31;100.00;101683.44;4961668;28;20135;-78
2021/11/23 02:13:01;;;;;;;17.65;6.72;;;4.90;99.90;;;3.28;100.00;101679.97;4979989;28;20129;-79
2021/11/23 02:15:27;;;;;;;18.55;6.20;;;5.00;99.90;;;3.31;100.00;101686.91;4951175;28;20593;-78
2021/11/23 02:17:55;;;;;;;21.27;7.35;;;5.00;99.90;;;3.33;100.00;101687.78;4948832;28;20053;-78
2021/11/23 02:20:25;;;;;;;15.85;7.05;;;5.00;99.90;;;3.37;100.00;101689.50;4938191;28;20041;-78
2021/11/23 02:22:52;;;;;;;15.55;6.60;;;5.10;99.90;;;3.42;100.00;101682.53;4965115;28;20032;-79
2021/11/23 02:25:19;;;;;;;17.73;6.93;;;5.10;99.90;;;3.42;100.00;101700.75;4946946;28;20025;-78
2021/11/23 02:27:50;;;;;;;15.38;7.03;;;5.10;99.90;;;3.44;100.00;101706.84;4962442;28;20123;-78
2021/11/23 02:30:17;;;;;;;27.77;7.60;;;5.10;99.90;;;3.48;100.00;101692.94;4945057;28;20079;-78
2021/11/23 02:32:56;;;;;;;13.85;6.88;;;5.10;99.90;;;3.50;100.00;101674.72;4950415;28;20079;-78
2021/11/23 02:35:24;;;;;;;16.58;7.25;;;5.10;99.90;;;3.51;100.00;101706.84;4975332;28;20026;-78
2021/11/23 02:37:59;;;;;;;22.80;8.15;;;5.20;99.90;;;3.53;100.00;101699.88;4931974;28;20027;-77
2021/11/23 02:40:26;;;;;;;18.70;7.78;;;5.20;99.90;;;3.59;100.00;101726.78;4926046;28;20089;-79
2021/11/23 02:42:52;;;;;;;18.70;7.95;;;5.20;99.90;;;3.64;100.00;101704.19;4948444;28;20037;-79
2021/11/23 02:45:22;;;;;;;27.23;7.93;;;5.30;99.90;;;3.65;100.00;101702.44;4963029;28;20078;-77
2021/11/23 02:47:53;;;;;;;19.60;7.78;;;5.30;99.90;;;3.65;100.00;101710.25;4995606;28;20045;-79
2021/11/23 02:50:21;;;;;;;21.77;8.40;;;5.30;99.90;;;3.69;100.00;101717.19;4992439;28;20026;-78
2021/11/23 02:52:59;;;;;;;17.58;7.90;;;5.30;99.90;;;3.72;100.00;101721.56;4927599;28;20033;-79
2021/11/23 02:55:31;;;;;;;22.17;8.95;;;5.40;99.90;;;3.76;100.00;101724.16;4920791;28;20048;-78
2021/11/23 02:57:58;;;;;;;21.17;9.07;;;5.40;99.90;;;3.78;100.00;101725.00;4922871;28;20041;-78
2021/11/23 03:00:28;;;;;;;24.42;10.00;;;5.40;99.90;;;3.81;100.00;101719.78;4917561;28;20040;-78
2021/11/23 03:02:55;;;;;;;26.88;9.55;;;5.50;99.90;;;3.84;100.00;101732.78;4937000;28;20486;-78
2021/11/23 03:05:29;;;;;;;27.95;9.90;;;5.50;99.90;;;3.88;100.00;101729.31;4955521;28;20040;-78
2021/11/23 03:07:57;;;;;;;25.70;9.27;;;5.50;99.90;;;3.89;100.00;101731.06;4903303;28;20038;-78
2021/11/23 03:10:26;;;;;;;23.60;9.70;;;5.50;99.90;;;3.89;100.00;101715.41;4951057;28;20356;-78
2021/11/23 03:12:56;;;;;;;25.40;9.68;;;5.50;99.90;;;3.92;100.00;101721.50;4930306;28;20021;-79
2021/11/23 03:15:25;;;;;;;23.98;9.93;;;5.60;99.90;;;3.95;100.00;101731.91;4914438;28;20038;-78
2021/11/23 03:17:53;;;;;;;19.30;8.77;;;5.60;99.90;;;3.97;100.00;101748.41;4967313;28;20060;-78
2021/11/23 03:20:24;;;;;;;27.55;9.68;;;5.60;99.90;;;3.98;100.00;101730.16;4918967;28;20025;-78
2021/11/23 03:22:52;;;;;;;26.08;9.55;;;5.60;99.90;;;3.97;100.00;101745.78;4944482;28;20029;-79
2021/11/23 03:25:19;;;;;;;24.27;9.43;;;5.60;99.90;;;3.99;100.00;101673.69;4948283;28;20040;-79
2021/11/23 03:27:51;;;;;;;22.60;9.70;;;5.60;99.90;;;3.97;100.00;101745.78;4911023;28;20044;-77
2021/11/23 03:30:23;;;;;;;24.80;9.68;;;5.60;99.90;;;3.99;100.00;101744.91;4941070;28;20035;-78
2021/11/23 03:32:58;;;;;;;25.48;9.55;;;5.60;99.90;;;4.04;100.00;101750.09;4961608;28;20088;-78
2021/11/23 03:35:27;;;;;;;21.92;8.68;;;5.70;99.90;;;4.06;100.00;101759.69;4967236;28;20069;-78
2021/11/23 03:37:59;;;;;;;25.90;8.82;;;5.70;99.90;;;4.09;100.00;101759.66;4965590;28;20114;-78
2021/11/23 03:40:28;;;;;;;20.15;9.70;;;5.80;99.90;;;4.08;100.00;101768.38;4924146;28;20563;-79
2021/11/23 03:42:55;;;;;;;25.25;8.85;;;5.70;99.90;;;4.18;100.00;101783.97;4932448;28;20488;-78
2021/11/23 03:45:25;;;;;;;22.65;9.82;;;5.80;99.90;;;4.16;100.00;101789.19;4931386;28;20046;-78
2021/11/23 03:47:52;;;;;;;25.42;9.95;;;5.80;99.90;;;4.23;100.00;101801.34;4959889;28;20465;-79
2021/11/23 03:50:18;;;;;;;21.88;9.50;;;5.80;99.90;;;4.23;100.00;101792.63;4966734;28;20037;-78
2021/11/23 03:52:48;;;;;;;22.83;9.63;;;5.90;99.90;;;4.28;100.00;101789.13;4940537;28;20088;-78
2021/11/23 03:55:19;;;;;;;22.00;9.70;;;5.90;99.90;;;4.31;100.00;101796.06;4926170;28;20035;-77
2021/11/23 03:57:48;;;;;;;24.50;10.48;;;6.00;99.90;;;4.36;100.00;101804.75;4991949;28;20024;-78
2021/11/23 04:00:21;;;;;;;27.52;10.57;;;6.00;99.90;;;4.41;100.00;101807.34;4950746;28;20048;-78
2021/11/23 04:02:49;;;;;;;17.80;9.27;;;6.00;99.90;;;4.38;100.00;101807.34;4945808;28;20018;-79
2021/11/23 04:05:16;;;;;;;25.38;10.07;;;6.00;99.90;;;4.37;100.00;101805.63;4986153;28;20047;-78
2021/11/23 04:07:43;;;;;;;28.00;10.77;;;6.00;99.90;;;4.39;100.00;101823.00;4931281;28;20121;-78
2021/11/23 04:10:14;;;;;;;27.27;10.52;;;6.00;99.90;;;4.41;100.00;101796.94;4940238;28;20059;-78
2021/11/23 04:12:40;;;;;;;23.67;10.23;;;6.00;99.90;;;4.35;100.00;101802.16;4964151;28;20087;-78
2021/11/23 04:15:09;;;;;;;26.45;10.50;;;6.10;99.90;;;4.45;100.00;101801.22;4928022;28;20033;-78
2021/11/23 04:17:36;;;;;;;21.50;9.48;;;6.00;99.90;;;4.39;100.00;101814.31;4937741;28;20033;-78
2021/11/23 04:20:08;;;;;;;21.75;9.50;;;6.00;99.90;;;4.36;100.00;101820.38;4967960;28;20083;-78
2021/11/23 04:22:35;;;;;;;23.88;9.85;;;6.00;99.90;;;4.44;100.00;101843.84;4979252;28;20441;-78
2021/11/23 04:25:01;;;;;;;22.95;8.82;;;6.00;99.90;;;4.36;100.00;101848.22;4956976;28;20517;-78
2021/11/23 04:27:28;;;;;;;23.38;9.93;;;6.10;99.90;;;4.38;100.00;101867.34;4939009;28;20042;-78
2021/11/23 04:30:02;;;;;;;22.42;9.20;;;6.10;99.90;;;4.40;100.00;101855.16;4923804;28;20496;-78
2021/11/23 04:32:29;;;;;;;19.92;9.68;;;6.10;99.90;;;4.40;100.00;101869.06;4962351;28;21127;-78
2021/11/23 04:34:56;;;;;;;24.98;10.02;;;6.10;99.90;;;4.47;100.00;101885.56;4945459;28;20037;-78
2021/11/23 04:37:22;;;;;;;23.13;9.68;;;6.10;99.90;;;4.47;100.00;101898.59;4950234;28;20036;-78
2021/11/23 04:39:52;;;;;;;20.05;9.60;;;6.10;99.90;;;4.45;100.00;101908.16;4948183;28;20036;-79
2021/11/23 04:42:20;;;;;;;20.52;9.00;;;6.10;99.90;;;4.44;100.00;101919.47;4946904;28;20036;-78
2021/11/23 04:44:46;;;;;;;22.63;9.80;;;6.10;99.90;;;4.47;100.00;101928.19;4970054;28;20115;-78
2021/11/23 04:47:15;;;;;;;20.45;8.80;;;6.10;99.90;;;4.48;100.00;101939.47;4928828;28;20088;-77
2021/11/23 04:49:42;;;;;;;20.90;9.77;;;;;;;4.51;100.00;101957.72;4950307;28;20100;-78
2021/11/23 04:52:08;;;;;;;19.40;8.50;;;6.20;99.90;;;4.52;100.00;101972.50;4975498;28;20393;-78
2021/11/23 04:54:35;;;;;;;25.83;9.85;;;6.20;99.90;;;4.51;100.00;101969.03;4937496;28;20038;-78
2021/11/23 04:57:00;;;;;;;16.17;8.90;;;6.20;99.90;;;4.54;100.00;101973.38;4986006;28;20026;-79
2021/11/23 04:59:26;;;;;;;22.52;9.25;;;6.10;99.90;;;4.47;100.00;101969.91;4983466;28;20530;-78
2021/11/23 05:01:52;;;;;;;22.80;9.55;;;6.10;99.90;;;4.47;100.00;101982.06;4931910;28;20125;-78
2021/11/23 05:04:21;;;;;;;20.15;10.20;;;6.10;99.90;;;4.47;100.00;101974.22;4985058;28;20108;-78
2021/11/23 05:06:47;;;;;;;23.23;9.50;;;6.10;99.90;;;4.45;100.00;102002.94;4955503;28;20333;-77
2021/11/23 05:09:13;;;;;;;21.30;9.38;;;6.10;99.90;;;4.42;100.00;102000.31;4983725;28;20446;-78
2021/11/23 05:11:43;;;;;;;19.45;9.95;;;6.10;99.90;;;4.46;100.00;102004.66;5005363;28;20041;-79
2021/11/23 05:14:09;;;;;;;19.40;8.80;;;6.10;99.90;;;4.41;100.00;102013.38;4972203;28;20063;-78
2021/11/23 05:16:37;;;;;;;19.02;8.70;;;6.10;99.90;;;4.43;100.00;102024.69;4972934;28;20033;-78
2021/11/23 05:19:03;;;;;;;31.90;10.85;;;6.00;99.90;;;4.38;100.00;102031.63;4983889;28;20205;-79
2021/11/23 05:21:29;;;;;;;28.73;10.30;;;6.00;99.90;;;4.40;100.00;102035.09;4951819;28;20474;-78
2021/11/23 05:23:55;;;;;;;55.15;13.13;;;6.00;99.90;;;4.38;100.00;102042.06;4949342;28;20029;-79
2021/11/23 05:26:21;;;;;;;24.23;10.07;;;6.00;99.90;;;4.35;100.00;102062.94;5006343;28;20037;-79
2021/11/23 05:28:47;;;;;;;33.72;10.10;;;6.00;99.90;;;4.36;100.00;102064.66;4981759;28;20045;-78
2021/11/23 05:31:22;;;;;;;23.73;9.77;;;6.00;99.90;;;4.35;100.00;102078.56;4951767;28;20026;-77
2021/11/23 05:33:48;;;;;;;23.70;9.85;;;6.00;99.90;;;4.38;100.00;102016.84;5005100;28;20052;-78
2021/11/23 05:36:14;;;;;;;25.40;9.75;;;6.00;99.90;;;4.40;100.00;102212.44;4964736;28;20033;-78
2021/11/23 05:38:41;;;;;;;26.23;9.77;;;6.00;99.90;;;4.38;100.00;102053.34;4928857;28;20120;-79
2021/11/23 05:41:09;;;;;;;18.83;8.80;;;6.80;99.90;;;4.40;100.00;102033.34;4946708;28;20021;-78
2021/11/23 05:43:35;;;;;;;21.73;8.70;;;6.00;99.90;;;4.45;100.00;101726.50;4942982;28;20408;-78
2021/11/23 05:46:01;;;;;;;24.38;9.38;;;6.10;99.90;;;4.46;100.00;101723.00;4968841;28;20042;-79
2021/11/23 05:48:27;;;;;;;20.98;8.32;;;6.10;99.90;;;4.48;100.00;101749.06;4934026;28;20052;-78
2021/11/23 05:50:53;;;;;;;22.90;8.35;;;6.10;99.90;;;4.50;100.00;101795.13;4959547;28;20070;-78
2021/11/23 05:53:19;;;;;;;21.55;8.27;;;6.10;99.90;;;4.52;100.00;101795.13;4941792;28;20568;-79
2021/11/23 05:55:55;;;;;;;23.58;7.80;;;;;;;4.49;100.00;101816.88;4955199;28;20039;-79
2021/11/23 05:58:20;;;;;;;22.87;8.30;;;6.10;99.90;;;4.46;100.00;101806.44;4967476;28;20108;-78
2021/11/23 06:00:46;;;;;;;26.27;7.88;;;6.10;99.90;;;4.48;100.00;101829.94;4956697;28;20192;-79
2021/11/23 06:03:12;;;;;;;15.75;7.22;;;6.10;99.90;;;4.44;100.00;101844.72;4933453;28;20533;-78
2021/11/23 06:05:43;;;;;;;23.20;7.90;;;6.10;99.90;;;4.44;100.00;101844.72;4919618;28;20034;-78
2021/11/23 06:08:09;;;;;;;22.50;7.28;;;6.00;99.90;;;4.42;100.00;101849.06;4932544;28;20034;-78
2021/11/23 06:10:35;;;;;;;15.68;7.00;;;6.10;99.90;;;4.45;100.00;101871.66;4983377;28;20030;-79
2021/11/23 06:13:01;;;;;;;19.35;6.20;;;6.10;99.90;;;4.48;100.00;101877.72;4970821;28;20029;-78
2021/11/23 06:15:29;;;;;;;17.65;6.65;;;6.10;99.90;;;4.47;100.00;101881.22;4948264;28;20081;-78
2021/11/23 06:18:02;;;;;;;16.80;6.32;;;6.10;99.90;;;4.48;100.00;101889.91;4935710;28;20032;-79
2021/11/23 06:20:30;;;;;;;24.20;6.72;;;6.10;99.90;;;4.49;100.00;101895.13;4988200;28;20030;-79
2021/11/23 06:23:02;;;;;;;18.02;6.07;;;6.20;99.90;;;4.53;100.00;101898.59;4917428;28;20371;-79
2021/11/23 06:25:30;;;;;;;20.90;6.07;;;6.20;99.90;;;4.57;100.00;101891.63;4961088;28;20036;-79
2021/11/23 06:27:57;;;;;;;14.45;5.35;;;6.20;99.90;;;4.60;100.00;101889.00;4960579;28;20045;-78
2021/11/23 06:30:24;;;;;;;21.05;5.53;;;6.30;99.90;;;4.62;100.00;101882.03;4973620;28;20064;-79
2021/11/23 06:32:55;;;;;;;11.52;4.55;;;;;;;4.62;100.00;101875.09;4956715;28;20040;-78
2021/11/23 06:35:21;;;;;;;20.67;4.80;;;6.30;99.90;;;4.66;100.00;101881.16;4981794;28;20413;-79
2021/11/23 06:37:47;;;;;;;10.60;3.83;;;6.30;99.90;;;4.65;100.00;101884.66;4936777;28;20272;-78
2021/11/23 06:40:13;;;;;;;17.50;4.53;;;6.30;99.90;;;4.67;100.00;101875.94;4977456;28;20029;-79
2021/11/23 06:42:39;;;;;;;10.35;4.13;;;6.40;99.90;;;4.69;100.00;101865.50;4980975;28;20060;-78
2021/11/23 06:45:07;;;;;;;11.60;3.38;;;6.40;99.90;;;4.69;100.00;101875.94;4974587;28;20058;-78
2021/11/23 06:47:36;;;;;;;14.30;3.53;;;6.30;99.90;;;4.66;100.00;101886.38;4951597;28;20418;-78
2021/11/23 06:50:03;;;;;;;13.77;3.65;;;6.30;99.90;;;4.65;100.00;101884.66;4911046;28;20703;-78
2021/11/23 06:52:29;;;;;;;14.07;3.33;;;6.30;99.90;;;4.62;100.00;101885.53;4954196;28;20041;-78
2021/11/23 06:54:55;;;;;;;14.20;2.88;;;6.30;99.90;;;4.73;100.00;101898.53;4917326;28;20115;-77
2021/11/23 06:57:21;;;;;;;9.85;2.40;;;6.40;99.90;;;4.71;100.00;101906.38;4906511;28;20083;-78
2021/11/23 06:59:52;;;;;;;13.88;2.67;;;6.40;99.90;;;4.77;100.00;101899.38;4948602;28;20033;-78
2021/11/23 07:02:18;;;;;;;12.40;2.50;;;6.40;99.90;;;4.80;100.00;101899.38;4942615;28;20241;-78
2021/11/23 07:04:44;;;;;;;8.93;1.88;;;6.40;99.90;;;4.73;100.00;101894.19;4923684;28;20119;-79
2021/11/23 07:07:10;;;;;;;11.70;2.00;;;6.40;99.90;;;4.70;100.00;101894.19;4899618;28;20041;-77
2021/11/23 07:09:37;;;;;;;12.57;2.10;;;6.40;99.90;;;4.75;100.00;101894.16;4970498;28;20039;-78
2021/11/23 07:12:08;;;;;;;9.48;2.20;;;6.40;99.90;;;4.70;100.00;101894.19;4930852;28;20036;-78
2021/11/23 07:14:34;;;;;;;9.32;2.78;;;6.40;99.90;;;4.66;100.00;101902.88;4953390;28;20503;-79
2021/11/23 07:17:00;;;;;;;9.57;1.65;;;6.30;99.90;;;4.67;100.00;101888.97;4996500;28;20037;-78
2021/11/23 07:19:26;;;;;;;11.05;2.17;;;6.40;99.90;;;4.74;100.00;101895.03;4960206;28;20041;-79
2021/11/23 07:21:52;;;;;;;12.80;1.90;;;6.40;99.90;;;4.70;100.00;101888.97;4960694;28;21884;-79
2021/11/23 07:24:21;;;;;;;7.68;1.77;;;6.40;99.90;;;4.70;100.00;101891.56;4961765;28;20032;-78
2021/11/23 07:26:47;;;;;;;16.50;2.30;;;6.40;99.90;;;4.72;100.00;101900.25;4962138;28;20046;-77
2021/11/23 07:29:14;;;;;;;8.38;1.67;;;6.40;99.90;;;4.73;100.00;101895.94;4953935;28;20021;-79
2021/11/23 07:31:41;;;;;;;12.77;1.80;;;6.40;99.90;;;4.72;100.00;101896.78;4919140;28;20033;-78
2021/11/23 07:34:07;;;;;;;12.18;2.70;;;6.40;99.90;;;4.77;100.00;101888.94;4951661;28;20449;-78
2021/11/23 07:36:42;;;;;;;6.75;1.45;;;6.40;99.90;;;4.78;100.00;101903.75;4995845;28;20116;-78
2021/11/23 07:39:08;;;;;;;10.35;1.88;;;6.50;99.90;;;4.86;100.00;101897.63;4947253;28;20111;-79
2021/11/23 07:41:35;;;;;;;13.50;1.85;;;6.60;99.90;;;5.01;100.00;101904.50;4963639;28;20121;-79
2021/11/23 07:44:03;;;;;;;21.20;2.00;;;6.70;99.90;;;5.11;100.00;101911.41;4943464;28;20042;-79
2021/11/23 07:46:29;;;;;;;9.82;1.73;;;6.80;99.90;;;5.27;100.00;101911.31;4944177;28;20570;-79
2021/11/23 07:49:03;;;;;;;21.25;1.75;;;6.90;99.90;;;5.28;100.00;101908.69;4978395;28;20061;-79
2021/11/23 07:51:29;;;;;;;14.88;2.13;;;7.00;99.90;;;5.36;100.00;101900.84;4943794;28;20036;-79
2021/11/23 07:53:55;;;;;;;9.38;2.17;;;7.00;99.90;;;5.35;100.00;101896.47;4935786;28;20034;-77
2021/11/23 07:56:21;;;;;;;12.10;2.25;;;7.00;99.90;;;5.39;100.00;101898.19;4947069;28;20611;-79
2021/11/23 07:58:55;;;;;;;11.70;2.65;;;7.00;99.90;;;5.42;100.00;101900.81;4961995;28;20500;-79
2021/11/23 08:01:21;;;;;;;12.85;2.17;;;7.10;99.90;;;5.45;100.00;101900.78;4964139;28;20402;-78
2021/11/23 08:03:47;;;;;;;14.90;2.50;;;7.10;99.90;;;5.52;100.00;101910.28;4955449;28;20029;-79
2021/11/23 08:06:14;;;;;;;12.90;2.70;;;7.10;99.90;;;5.57;100.00;101904.16;4983729;28;20036;-78
2021/11/23 08:08:42;;;;;;;14.95;2.25;;;7.20;99.90;;;5.61;100.00;101908.50;4942005;28;20087;-78
2021/11/23 08:11:10;;;;;;;24.30;2.33;;;7.20;99.90;;;5.64;100.00;101901.53;4922636;28;20127;-79
2021/11/23 08:13:36;;;;;;;21.13;2.72;;;7.20;99.90;;;5.64;100.00;101884.97;4909153;28;20026;-78
2021/11/23 08:16:03;;;;;;;16.80;2.85;;;7.20;99.90;;;5.68;100.00;101894.50;4925847;28;20045;-78
2021/11/23 08:18:34;;;;;;;24.27;2.75;;;7.30;99.90;;;5.73;100.00;101901.44;5002887;28;20029;-79
2021/11/23 08:21:02;;;;;;;20.60;3.10;;;7.40;99.90;;;5.76;100.00;101897.94;4930054;28;20493;-79
2021/11/23 08:23:29;;;;;;;12.35;2.70;;;7.40;99.90;;;5.84;100.00;101898.75;4941664;28;20034;-78
2021/11/23 08:25:55;;;;;;;7.25;2.15;;;7.50;99.90;;;5.90;100.00;101903.91;4948751;28;20030;-77
2021/11/23 08:28:25;;;;;;;14.85;2.28;;;7.50;99.90;;;5.95;100.00;101881.25;4958873;28;20054;-79
2021/11/23 08:30:58;;;;;;;17.55;2.58;;;7.50;99.90;;;5.93;100.00;101879.50;4999072;28;20033;-79
2021/11/23 08:33:25;;;;;;;19.63;2.38;;;7.50;99.90;;;5.98;100.00;101887.31;4950285;28;20044;-78
2021/11/23 08:35:56;;;;;;;15.93;3.08;;;7.50;99.90;;;6.08;100.00;101891.59;4941424;28;20055;-78
2021/11/23 08:38:23;;;;;;;21.40;2.58;;;7.60;99.90;;;6.09;100.00;101882.84;4943500;28;20101;-79
2021/11/23 08:40:49;;;;;;;14.20;2.97;;;7.60;99.90;;;6.12;100.00;101878.47;4921842;28;20455;-79
2021/11/23 08:43:15;;;;;;;24.77;2.97;;;7.70;99.90;;;6.11;100.00;101870.63;4923003;28;20064;-79
2021/11/23 08:45:45;;;;;;;12.82;2.60;;;7.70;99.90;;;6.16;100.00;101871.47;4966289;28;20059;-78
2021/11/23 08:48:12;;;;;;;12.63;2.33;;;7.80;99.90;;;6.24;100.00;101869.66;4977674;28;20104;-79
2021/11/23 08:50:39;;;;;;;17.38;3.00;;;7.80;99.90;;;6.27;100.00;101867.00;4928030;28;20068;-79
2021/11/23 08:53:07;;;;;;;17.23;2.60;;;7.80;99.90;;;6.34;100.00;101870.41;4949441;28;20021;-79
2021/11/23 08:55:40;;;;;;;15.40;2.28;;;7.90;99.90;;;6.39;100.00;101872.97;4962150;28;20033;-78
2021/11/23 08:58:08;;;;;;;17.75;2.55;;;8.00;99.90;;;6.41;100.00;101869.44;4959420;28;20021;-78
2021/11/23 09:00:44;;;;;;;10.50;2.22;;;8.00;99.90;;;6.49;100.00;101862.38;4957212;28;20026;-78
2021/11/23 09:03:29;;;;;;;18.08;2.28;;;8.00;99.90;;;6.56;100.00;101871.88;4901317;28;20034;-78
2021/11/23 09:05:55;;;;;;;14.85;1.92;;;8.20;99.90;;;6.69;100.00;101864.75;4940272;28;20108;-78
2021/11/23 09:08:29;;;;;;;13.27;2.28;;;8.20;99.90;;;6.69;100.00;101858.66;4958959;28;20730;-77
2021/11/23 09:10:56;;;;;;;23.20;2.35;;;8.20;99.90;;;6.73;100.00;101855.13;4946987;28;20413;-78
2021/11/23 09:13:25;;;;;;;16.02;2.15;;;8.20;99.90;;;6.71;100.00;101855.13;4932222;28;20037;-78
2021/11/23 09:16:00;;;;;;;9.23;1.83;;;8.30;99.90;;;6.82;100.00;101849.75;4963479;28;20044;-78
2021/11/23 09:18:26;;;;;;;19.33;2.20;;;8.30;99.90;;;6.78;100.00;101845.44;4978388;28;20489;-78
2021/11/23 09:20:52;;;;;;;9.98;2.10;;;8.30;99.90;;;6.74;100.00;101852.50;4921477;28;20046;-78
2021/11/23 09:23:25;;;;;;;14.57;1.95;;;8.30;99.90;;;6.71;100.00;101846.44;4946762;28;20028;-78
2021/11/23 09:25:53;;;;;;;14.27;2.70;;;8.20;99.90;;;6.65;100.00;101857.88;4929830;28;20043;-78
2021/11/23 09:28:35;;;;;;;11.65;1.80;;;8.20;99.90;;;6.68;100.00;101862.19;4915391;28;20048;-80
2021/11/23 09:31:08;;;;;;;20.67;1.85;;;8.20;99.90;;;6.71;100.00;101868.22;4940418;28;20072;-78
2021/11/23 09:33:34;;;;;;;12.95;1.90;;;8.20;99.90;;;6.82;100.00;101872.47;4924139;28;20028;-79
2021/11/23 09:36:01;;;;;;;20.50;2.10;;;8.30;99.90;;;6.94;100.00;101870.56;4956296;28;20490;-78
2021/11/23 09:38:36;;;;;;;10.95;2.70;;;8.40;99.90;;;7.15;100.00;101874.66;4957579;28;20051;-78
2021/11/23 09:41:08;;;;;;;15.18;1.70;;;8.70;99.90;;;7.47;100.00;101885.53;4946103;28;20053;-78
2021/11/23 09:43:40;;;;;;;14.85;1.92;;;8.90;99.90;;;7.55;100.00;101870.56;4940231;28;20033;-78
2021/11/23 09:46:09;;;;;;;18.95;2.25;;;8.90;99.90;;;7.54;100.00;101850.50;4995052;28;20053;-78
2021/11/23 09:48:58;;;;;;;10.18;1.67;;;9.00;99.90;;;7.58;100.00;101855.66;4945800;28;20037;-78
2021/11/23 09:51:28;;;;;;;12.73;2.15;;;9.10;99.90;;;7.58;100.00;101850.44;4960150;28;20099;-78
2021/11/23 09:54:00;;;;;;;13.88;1.45;;;9.20;99.90;;;7.66;100.00;101854.66;4951039;28;20034;-78
2021/11/23 09:56:27;;;;;;;13.75;2.30;;;9.10;99.90;;;7.44;100.00;101834.03;4950192;28;20048;-78
2021/11/23 09:58:56;;;;;;;11.98;1.63;;;8.90;99.90;;;7.34;100.00;101816.72;4942324;28;20035;-78
2021/11/23 10:01:33;;;;;;;8.52;1.40;;;8.90;99.90;;;7.24;100.00;101815.16;4937656;28;20033;-78
2021/11/23 10:04:07;;;;;;;11.52;1.38;;;8.80;99.90;;;7.24;100.00;101863.19;4969917;28;20053;-78
2021/11/23 10:06:53;;;;;;;9.73;1.60;;;8.80;99.90;;;7.18;100.00;101869.34;4946379;28;20486;-78
2021/11/23 10:09:56;;;;;;;14.00;1.70;;;8.80;99.90;;;7.10;100.00;101865.13;4960236;28;20445;-78
2021/11/23 10:13:00;;;;;;;13.45;1.75;;;8.70;99.90;;;7.16;100.00;101854.56;4979283;28;20026;-78
2021/11/23 10:15:34;;;;;;;11.02;1.60;;;8.80;99.90;;;7.22;100.00;101870.19;4960457;28;20033;-79
2021/11/23 10:18:19;;;;;;;14.35;1.60;;;8.90;99.90;;;7.31;100.00;101875.28;4958036;28;21008;-79